Time;durP1;ratioP1;P1;durP2;ratioP2;P2;SDS_P1;SDS_P2;PMS_P1;PMS_P2;Temp;Humidity;BMP_temperature;BMP_pressure;BME280_temperature;BME280_humidity;BME280_pressure;Samples;Min_cycle;Max_cycle;Signal;HPM_P1;HPM_P2
2023/02/19 00:01:43;;;;;;;8.40;3.10;;;;;;;4.63;58.85;99075.52;105397;1262;64703;-76
2023/02/19 00:04:13;;;;;;;6.50;2.70;;;;;;;4.62;58.82;99079.97;106015;1253;60228;-75
2023/02/19 00:06:40;;;;;;;8.10;2.70;;;;;;;4.62;58.86;99071.21;105955;1254;65633;-74
2023/02/19 00:09:09;;;;;;;9.60;2.70;;;;;;;4.64;58.85;99066.95;105658;1254;60623;-75
2023/02/19 00:11:36;;;;;;;7.00;2.50;;;;;;;4.64;58.83;99065.19;105874;1254;60478;-73
2023/02/19 00:14:04;;;;;;;7.60;2.70;;;;;;;4.63;58.77;99069.75;105911;1259;66293;-75
2023/02/19 00:16:33;;;;;;;7.10;2.40;;;;;;;4.62;58.85;99072.08;105772;1254;60539;-74
2023/02/19 00:19:03;;;;;;;9.10;2.40;;;;;;;4.62;58.86;99068.46;105738;1254;65363;-74
2023/02/19 00:21:30;;;;;;;6.30;2.40;;;;;;;4.60;58.92;99067.34;106379;1254;60418;-76
2023/02/19 00:23:59;;;;;;;6.60;2.60;;;;;;;4.58;58.99;99066.11;106197;1259;60395;-74
2023/02/19 00:26:26;;;;;;;9.10;2.30;;;;;;;4.57;59.05;99065.52;105927;1254;66450;-75
2023/02/19 00:28:54;;;;;;;7.10;2.20;;;;;;;4.55;59.06;99059.89;106395;1256;60486;-75
2023/02/19 00:31:26;;;;;;;4.90;2.30;;;;;;;4.54;59.07;99053.34;105937;1254;64589;-74
2023/02/19 00:33:57;;;;;;;8.50;2.60;;;;;;;4.51;59.18;99052.52;105631;1254;60345;-76
2023/02/19 00:36:25;;;;;;;7.80;2.70;;;;;;;4.49;59.26;99055.13;105478;1254;60869;-75
2023/02/19 00:38:52;;;;;;;7.40;2.50;;;;;;;4.46;59.30;99057.64;105656;1255;66603;-74
2023/02/19 00:41:20;;;;;;;8.80;2.40;;;;;;;4.44;59.31;99062.98;105697;1254;60425;-77
2023/02/19 00:43:49;;;;;;;10.20;3.20;;;;;;;4.38;59.46;99070.08;105694;1260;65889;-75
2023/02/19 00:46:17;;;;;;;9.60;3.50;;;;;;;4.36;59.72;99069.04;105676;1254;60392;-74
2023/02/19 00:48:45;;;;;;;6.10;2.60;;;;;;;4.36;59.69;99069.56;105630;1253;60354;-73
2023/02/19 00:51:12;;;;;;;7.00;2.20;;;;;;;4.35;59.83;99069.08;105569;1254;66440;-74
2023/02/19 00:53:45;;;;;;;8.80;2.90;;;;;;;4.35;59.89;99074.02;105632;1254;60440;-73
2023/02/19 00:56:12;;;;;;;7.40;2.70;;;;;;;4.34;59.92;99076.16;105727;1254;65560;-74
2023/02/19 00:58:39;;;;;;;5.50;2.50;;;;;;;4.32;59.97;99075.90;105828;1257;60341;-73
2023/02/19 01:01:06;;;;;;;7.80;2.90;;;;;;;4.32;60.04;99074.69;105503;1254;60418;-74
2023/02/19 01:03:34;;;;;;;7.30;2.50;;;;;;;4.30;60.08;99071.17;105868;1257;66560;-74
2023/02/19 01:06:03;;;;;;;7.30;2.80;;;;;;;4.29;60.11;99069.52;106033;1255;60377;-75
2023/02/19 01:08:30;;;;;;;8.30;2.20;;;;;;;4.28;60.18;99062.98;106133;1257;65425;-74
2023/02/19 01:11:03;;;;;;;6.10;2.50;;;;;;;4.27;60.21;99055.27;105861;1253;60505;-74
2023/02/19 01:13:30;;;;;;;10.00;2.50;;;;;;;4.25;60.32;99055.73;105898;1254;59227;-74
2023/02/19 01:16:17;;;;;;;9.30;3.10;;;;;;;4.24;60.29;99058.09;105916;1253;66745;-74
2023/02/19 01:18:46;;;;;;;6.20;2.60;;;;;;;4.22;60.37;99056.11;106019;1253;60539;-74
2023/02/19 01:21:21;;;;;;;6.90;2.60;;;;;;;4.20;60.40;99059.77;105870;1253;65504;-74
2023/02/19 01:23:49;;;;;;;9.00;2.90;;;;;;;4.18;60.45;99066.03;105811;1254;60439;-74
2023/02/19 01:26:24;;;;;;;10.30;3.30;;;;;;;4.15;60.54;99068.29;105844;1254;60652;-74
2023/02/19 01:28:52;;;;;;;9.40;3.00;;;;;;;4.13;60.68;99069.31;105810;1254;65591;-74
2023/02/19 01:31:20;;;;;;;10.70;3.40;;;;;;;4.12;60.66;99070.98;105997;1254;60530;-74
2023/02/19 01:33:50;;;;;;;6.00;2.90;;;;;;;4.11;60.71;99071.75;105668;1257;65362;-74
2023/02/19 01:36:17;;;;;;;10.50;3.10;;;;;;;4.10;60.81;99072.52;105458;1254;60492;-74
2023/02/19 01:38:44;;;;;;;9.50;3.00;;;;;;;4.11;60.90;99083.45;106019;1254;60447;-75
2023/02/19 01:41:13;;;;;;;7.40;3.10;;;;;;;4.12;60.84;99084.76;105786;1254;65819;-74
2023/02/19 01:44:12;;;;;;;8.20;3.10;;;;;;;4.12;60.90;99085.80;105959;1254;60533;-74
2023/02/19 01:46:40;;;;;;;6.00;2.80;;;;;;;4.11;60.99;99090.05;105509;1258;64585;-74
2023/02/19 01:49:19;;;;;;;8.50;2.80;;;;;;;4.09;61.03;99090.52;105432;1254;60507;-75
2023/02/19 01:51:48;;;;;;;7.30;2.70;;;;;;;4.09;61.05;99091.74;106134;1254;60569;-74
2023/02/19 01:54:16;;;;;;;6.80;2.60;;;;;;;4.08;61.10;99091.50;105976;1255;66773;-74
2023/02/19 01:56:43;;;;;;;7.40;2.90;;;;;;;4.07;61.10;99090.53;105954;1254;60423;-75
2023/02/19 01:59:10;;;;;;;8.30;2.60;;;;;;;4.06;61.13;99090.95;105657;1262;64548;-74
2023/02/19 02:01:37;;;;;;;7.90;2.60;;;;;;;4.05;61.22;99098.31;105923;1254;60441;-74
2023/02/19 02:04:05;;;;;;;6.50;2.60;;;;;;;4.04;61.26;99100.45;106035;1253;60475;-74
2023/02/19 02:06:34;;;;;;;9.30;3.10;;;;;;;4.03;61.26;99104.55;105898;1254;65753;-74
2023/02/19 02:11:50;;;;;;;6.00;2.40;;;;;;;4.03;61.36;99112.72;105806;1254;65507;-74
2023/02/19 02:14:18;;;;;;;7.10;2.80;;;;;;;4.02;61.41;99114.86;106294;1257;60423;-74
2023/02/19 02:16:57;;;;;;;9.70;2.70;;;;;;;4.02;61.44;99114.67;105827;1260;60355;-73
2023/02/19 02:19:46;;;;;;;6.90;2.80;;;;;;;4.03;61.41;99116.20;105848;1259;66476;-73
2023/02/19 02:22:31;;;;;;;8.80;2.70;;;;;;;4.03;61.32;99121.25;105902;1254;60904;-73
2023/02/19 02:25:15;;;;;;;9.80;3.00;;;;;;;4.02;61.41;99123.25;105830;1254;65505;-73
2023/02/19 02:28:01;;;;;;;10.50;3.40;;;;;;;4.01;61.50;99123.29;105738;1254;60280;-73
2023/02/19 02:30:37;;;;;;;6.40;3.10;;;;;;;4.01;61.54;99130.45;105933;1254;60462;-73
2023/02/19 02:33:18;;;;;;;6.70;2.80;;;;;;;4.00;61.56;99134.14;105881;1254;65988;-73
2023/02/19 02:36:06;;;;;;;7.00;3.00;;;;;;;3.97;61.56;99137.52;105842;1256;60422;-74
2023/02/19 02:38:38;;;;;;;8.30;2.90;;;;;;;3.95;61.66;99140.98;105820;1255;65418;-74
2023/02/19 02:41:04;;;;;;;9.10;3.20;;;;;;;3.94;61.63;99141.08;105729;1254;60446;-74
2023/02/19 02:43:32;;;;;;;8.40;3.00;;;;;;;3.94;61.72;99140.91;105858;1254;60466;-74
2023/02/19 02:45:59;;;;;;;8.10;2.80;;;;;;;3.93;61.67;99140.08;105775;1253;65441;-74
2023/02/19 02:48:42;;;;;;;8.80;2.70;;;;;;;3.93;61.82;99149.84;105844;1256;60320;-74
2023/02/19 02:51:19;;;;;;;6.10;3.00;;;;;;;3.94;61.81;99150.67;105738;1254;65751;-74
2023/02/19 02:56:58;;;;;;;7.30;2.70;;;;;;;3.92;61.86;99160.55;105911;1254;60319;-75
2023/02/19 02:59:29;;;;;;;9.80;3.00;;;;;;;3.90;61.98;99160.83;105773;1259;66467;-74
2023/02/19 03:02:12;;;;;;;5.40;2.50;;;;;;;3.87;62.04;99164.19;105645;1260;60593;-74
2023/02/19 03:07:53;;;;;;;8.80;2.90;;;;;;;3.88;62.17;99176.16;105817;1254;60444;-74
2023/02/19 03:10:40;;;;;;;8.80;2.80;;;;;;;3.88;62.18;99180.17;105859;1254;60408;-76
2023/02/19 03:21:39;;;;;;;8.80;3.30;;;;;;;3.84;62.29;99193.99;109432;1254;58172;-73
2023/02/19 03:26:55;;;;;;;8.50;3.00;;;;;;;3.85;62.30;99194.35;109249;1252;66524;-73
2023/02/19 03:29:24;;;;;;;8.50;3.10;;;;;;;3.84;62.37;99199.95;109257;1252;58627;-73
2023/02/19 03:31:57;;;;;;;7.40;2.70;;;;;;;3.85;62.44;99201.13;109560;1253;64009;-73
2023/02/19 03:34:38;;;;;;;5.90;2.70;;;;;;;3.85;62.42;99197.09;109373;1252;58149;-73
2023/02/19 03:37:12;;;;;;;7.10;2.80;;;;;;;3.85;62.47;99198.13;109257;1256;58165;-73
2023/02/19 03:39:43;;;;;;;9.20;3.10;;;;;;;3.91;62.37;99202.05;109163;1253;66486;-73
2023/02/19 03:42:15;;;;;;;7.10;2.90;;;;;;;3.97;62.29;99198.52;109096;1252;59768;-73
2023/02/19 03:44:51;;;;;;;9.00;2.80;;;;;;;3.88;62.51;99200.20;109289;1254;65205;-73
2023/02/19 03:47:27;;;;;;;11.40;3.30;;;;;;;3.84;62.70;99201.34;109232;1254;58119;-73
2023/02/19 03:49:58;;;;;;;7.80;3.20;;;;;;;3.79;62.89;99196.35;109210;1254;58291;-73
2023/02/19 03:52:46;;;;;;;6.80;2.80;;;;;;;3.79;63.07;99195.42;109354;1254;65007;-73
2023/02/19 03:55:16;;;;;;;5.40;2.70;;;;;;;3.81;63.06;99194.81;109364;1254;59334;-73
2023/02/19 03:57:56;;;;;;;8.30;3.30;;;;;;;3.81;63.07;99194.96;109412;1254;63956;-73
2023/02/19 04:00:36;;;;;;;7.10;2.90;;;;;;;3.80;63.17;99198.16;109509;1253;58313;-74
2023/02/19 04:03:43;;;;;;;8.40;2.90;;;;;;;3.82;63.23;99204.30;109316;1254;58121;-73
2023/02/19 04:06:16;;;;;;;9.30;3.10;;;;;;;3.82;63.28;99208.80;109352;1254;66100;-74
2023/02/19 04:08:45;;;;;;;7.20;2.90;;;;;;;3.81;63.33;99210.77;109158;1253;58536;-74
2023/02/19 04:11:12;;;;;;;8.40;3.00;;;;;;;3.81;63.38;99214.79;109141;1256;63868;-74
2023/02/19 04:13:46;;;;;;;9.30;3.60;;;;;;;3.81;63.43;99214.83;109186;1254;58123;-73
2023/02/19 04:16:17;;;;;;;7.00;3.00;;;;;;;3.80;63.42;99212.08;109302;1255;58094;-74
2023/02/19 04:18:51;;;;;;;7.70;3.50;;;;;;;3.80;63.46;99214.85;109193;1254;66403;-73
2023/02/19 04:21:19;;;;;;;9.40;3.00;;;;;;;3.81;63.48;99215.00;109202;1253;59497;-73
2023/02/19 04:23:45;;;;;;;9.80;3.30;;;;;;;3.81;63.54;99210.81;109340;1254;64863;-73
2023/02/19 04:26:12;;;;;;;8.30;2.90;;;;;;;3.80;63.64;99215.05;109195;1254;58199;-74
2023/02/19 04:28:39;;;;;;;6.30;2.40;;;;;;;3.80;63.60;99215.61;109352;1254;58330;-73
2023/02/19 04:31:06;;;;;;;7.60;3.00;;;;;;;3.80;63.67;99215.42;109205;1254;66083;-73
2023/02/19 04:33:33;;;;;;;6.40;2.90;;;;;;;3.80;63.69;99218.55;109540;1253;58274;-75
2023/02/19 04:36:00;;;;;;;7.80;3.00;;;;;;;3.77;63.80;99215.46;109522;1253;63810;-73
2023/02/19 04:38:27;;;;;;;7.50;3.10;;;;;;;3.73;63.83;99219.16;109517;1253;58171;-73
2023/02/19 04:40:53;;;;;;;6.50;3.30;;;;;;;3.71;63.91;99221.92;109557;1253;58306;-73
2023/02/19 04:43:20;;;;;;;7.40;3.00;;;;;;;3.70;63.91;99230.19;109318;1254;65150;-73
2023/02/19 04:45:47;;;;;;;7.80;3.00;;;;;;;3.70;64.06;99243.39;109497;1254;58225;-73
2023/02/19 04:48:15;;;;;;;7.20;2.80;;;;;;;3.71;64.10;99244.02;109387;1254;64195;-79
2023/02/19 04:50:42;;;;;;;11.60;3.20;;;;;;;3.72;63.93;99243.77;109420;1254;58211;-77
2023/02/19 04:53:09;;;;;;;6.60;3.10;;;;;;;3.73;63.91;99244.75;109447;1254;58142;-74
2023/02/19 04:55:37;;;;;;;6.00;2.40;;;;;;;3.72;64.12;99247.98;109526;1254;66091;-77
2023/02/19 04:58:04;;;;;;;7.20;3.10;;;;;;;3.70;64.16;99250.08;109248;1254;59273;-77
2023/02/19 05:00:32;;;;;;;9.90;4.60;;;;;;;3.68;64.24;99254.52;109463;1254;65095;-75
2023/02/19 05:02:59;;;;;;;7.60;4.80;;;;;;;3.69;64.29;99256.23;109426;1254;58051;-77
2023/02/19 05:05:26;;;;;;;8.50;4.40;;;;;;;3.68;64.34;99247.42;109431;1254;58165;-81
2023/02/19 05:07:54;;;;;;;7.50;3.50;;;;;;;3.65;64.42;99232.64;109528;1254;66330;-79
2023/02/19 05:10:22;;;;;;;6.40;3.30;;;;;;;3.60;64.40;99234.41;109466;1254;59104;-78
2023/02/19 05:12:49;;;;;;;6.20;3.50;;;;;;;3.57;64.43;99235.27;109179;1254;63780;-78
2023/02/19 05:15:16;;;;;;;4.80;2.80;;;;;;;3.53;64.66;99234.14;109445;1254;58619;-80
2023/02/19 05:17:42;;;;;;;7.50;3.30;;;;;;;3.49;64.83;99235.70;109466;1254;58044;-72
2023/02/19 05:20:10;;;;;;;6.30;2.90;;;;;;;3.44;64.87;99240.50;109442;1256;66185;-78
2023/02/19 05:22:38;;;;;;;10.40;2.60;;;;;;;3.41;64.86;99246.14;109414;1254;58468;-74
2023/02/19 05:25:08;;;;;;;7.60;3.10;;;;;;;3.36;64.99;99254.27;109495;1254;64905;-78
2023/02/19 05:27:35;;;;;;;7.60;3.00;;;;;;;3.32;65.15;99255.61;109225;1254;58208;-72
2023/02/19 05:30:02;;;;;;;8.10;2.80;;;;;;;3.29;65.22;99260.69;109461;1254;58169;-73
2023/02/19 05:32:29;;;;;;;6.80;3.10;;;;;;;3.27;65.31;99265.32;109432;1254;66125;-72
2023/02/19 05:34:56;;;;;;;7.40;3.00;;;;;;;3.26;65.36;99263.29;109477;1254;58248;-74
2023/02/19 05:37:23;;;;;;;5.80;2.60;;;;;;;3.25;65.39;99267.55;109464;1254;65024;-73
2023/02/19 05:39:50;;;;;;;9.70;3.50;;;;;;;3.23;65.63;99273.97;109383;1254;58167;-76
2023/02/19 05:42:17;;;;;;;7.80;3.10;;;;;;;3.20;65.83;99280.12;109231;1254;58180;-72
2023/02/19 05:44:51;;;;;;;6.10;2.90;;;;;;;3.16;66.02;99284.46;109444;1254;66148;-73
2023/02/19 05:47:18;;;;;;;7.90;2.80;;;;;;;3.15;66.32;99284.88;109446;1256;58284;-75
2023/02/19 05:49:45;;;;;;;8.00;3.80;;;;;;;3.18;66.44;99287.00;109158;1254;64754;-75
2023/02/19 05:52:13;;;;;;;5.50;3.00;;;;;;;3.20;66.53;99283.05;109404;1254;58062;-76
2023/02/19 05:54:40;;;;;;;9.20;3.20;;;;;;;3.22;66.72;99280.09;109453;1254;58155;-76
2023/02/19 05:57:07;;;;;;;7.50;3.20;;;;;;;3.26;66.80;99278.97;109443;1254;65937;-77
2023/02/19 05:59:34;;;;;;;9.00;2.90;;;;;;;3.29;66.98;99277.75;109459;1254;59377;-77
2023/02/19 06:02:02;;;;;;;8.30;3.20;;;;;;;3.32;66.96;99274.58;109431;1256;65067;-77
2023/02/19 06:04:30;;;;;;;6.00;3.40;;;;;;;3.34;67.10;99275.29;109417;1254;58105;-78
2023/02/19 06:06:57;;;;;;;8.60;4.00;;;;;;;3.37;67.09;99276.30;109432;1254;58230;-77
2023/02/19 06:09:24;;;;;;;9.00;3.70;;;;;;;3.40;67.25;99280.14;109327;1254;66440;-78
2023/02/19 06:11:51;;;;;;;8.30;2.90;;;;;;;3.43;67.31;99279.20;109465;1254;58462;-78
2023/02/19 06:14:18;;;;;;;7.40;3.80;;;;;;;3.47;67.47;99282.26;109411;1254;65085;-77
2023/02/19 06:16:44;;;;;;;6.80;3.30;;;;;;;3.51;67.43;99289.98;109110;1255;58187;-76
2023/02/19 06:19:15;;;;;;;8.50;3.70;;;;;;;3.56;67.51;99288.63;109188;1256;58219;-77
2023/02/19 06:21:42;;;;;;;6.40;3.00;;;;;;;3.60;67.48;99286.09;109359;1255;66303;-77
2023/02/19 06:24:09;;;;;;;8.00;3.00;;;;;;;3.64;67.47;99288.76;109455;1255;58614;-78
2023/02/19 06:26:36;;;;;;;8.80;3.40;;;;;;;3.67;67.55;99293.21;109422;1254;63705;-78
2023/02/19 06:29:03;;;;;;;7.80;3.10;;;;;;;3.70;67.47;99295.80;109144;1254;58330;-77
2023/02/19 06:31:30;;;;;;;7.70;3.10;;;;;;;3.74;67.45;99296.39;109166;1256;58083;-77
2023/02/19 06:33:57;;;;;;;8.10;3.20;;;;;;;3.77;67.39;99298.84;109366;1254;66523;-80
2023/02/19 06:36:24;;;;;;;6.60;3.20;;;;;;;3.80;67.40;99305.27;109448;1254;59101;-78
2023/02/19 06:38:51;;;;;;;7.10;3.00;;;;;;;3.83;67.36;99306.05;109197;1254;65042;-77
2023/02/19 06:41:19;;;;;;;7.90;3.00;;;;;;;3.89;67.46;99312.42;109314;1256;58176;-81
2023/02/19 06:43:46;;;;;;;7.70;3.50;;;;;;;3.95;67.34;99317.95;109327;1259;58189;-81
2023/02/19 06:46:13;;;;;;;9.60;3.40;;;;;;;4.00;67.25;99324.74;109258;1257;66238;-80
2023/02/19 06:48:45;;;;;;;8.80;3.00;;;;;;;4.04;67.10;99323.60;109371;1256;59480;-80
2023/02/19 06:51:14;;;;;;;8.20;4.20;;;;;;;4.08;67.00;99325.22;109181;1256;63778;-79
2023/02/19 06:53:41;;;;;;;7.90;4.40;;;;;;;4.12;66.84;99324.45;109160;1256;58118;-80
2023/02/19 06:56:23;;;;;;;6.80;3.60;;;;;;;4.17;66.86;99328.45;109262;1257;58052;-82
2023/02/19 06:58:51;;;;;;;9.40;3.30;;;;;;;4.25;66.66;99330.15;109279;1255;65275;-81
2023/02/19 07:01:22;;;;;;;7.50;4.10;;;;;;;4.29;66.51;99333.66;109465;1255;59715;-80
2023/02/19 07:03:51;;;;;;;6.70;3.40;;;;;;;4.33;66.40;99333.78;109183;1257;65179;-80
2023/02/19 07:06:19;;;;;;;12.40;3.60;;;;;;;4.38;66.12;99332.73;109403;1256;58191;-79
2023/02/19 07:08:52;;;;;;;7.80;3.20;;;;;;;4.43;66.05;99327.82;109408;1256;58020;-79
2023/02/19 07:11:20;;;;;;;6.90;3.40;;;;;;;4.50;65.93;99327.33;109222;1256;65184;-79
2023/02/19 07:13:58;;;;;;;9.20;3.30;;;;;;;4.55;65.83;99326.27;109393;1257;59267;-78
2023/02/19 07:16:26;;;;;;;7.60;3.10;;;;;;;4.62;65.62;99329.29;109161;1256;63915;-79
2023/02/19 07:18:56;;;;;;;9.10;3.10;;;;;;;4.70;65.48;99326.11;109377;1257;58061;-79
2023/02/19 07:21:30;;;;;;;6.30;2.80;;;;;;;4.74;65.13;99322.33;109231;1256;58041;-79
2023/02/19 07:23:57;;;;;;;5.90;2.80;;;;;;;4.76;64.74;99322.85;109253;1256;66107;-79
2023/02/19 07:26:29;;;;;;;8.90;3.60;;;;;;;4.77;64.49;99320.48;109259;1255;58947;-79
2023/02/19 07:28:57;;;;;;;8.00;3.20;;;;;;;4.80;64.49;99327.79;109263;1257;65177;-80
2023/02/19 07:31:26;;;;;;;6.20;3.10;;;;;;;4.85;64.31;99331.11;109391;1256;58099;-80
2023/02/19 07:33:53;;;;;;;8.00;2.80;;;;;;;4.87;63.83;99334.77;109404;1256;58245;-80
2023/02/19 07:36:23;;;;;;;6.40;2.70;;;;;;;4.88;63.57;99330.88;109240;1257;66087;-80
2023/02/19 07:39:00;;;;;;;8.30;3.50;;;;;;;4.88;63.51;99332.92;109279;1257;59215;-80
2023/02/19 07:41:29;;;;;;;7.90;3.00;;;;;;;4.91;63.31;99333.95;109180;1256;64746;-79
2023/02/19 07:43:57;;;;;;;7.60;3.20;;;;;;;4.97;62.89;99332.16;109185;1256;58198;-80
2023/02/19 07:46:25;;;;;;;4.70;2.60;;;;;;;5.02;62.49;99325.47;109130;1257;58086;-80
2023/02/19 07:48:58;;;;;;;7.00;3.20;;;;;;;5.10;62.50;99324.89;109196;1256;66417;-80
2023/02/19 07:51:26;;;;;;;6.50;3.00;;;;;;;5.23;62.56;99323.80;109184;1256;59477;-77
2023/02/19 07:53:54;;;;;;;7.30;2.70;;;;;;;5.35;61.93;99323.07;109242;1256;64736;-77
2023/02/19 07:56:22;;;;;;;7.70;2.90;;;;;;;5.41;61.21;99325.22;109180;1256;58192;-79
2023/02/19 07:58:49;;;;;;;7.80;2.60;;;;;;;5.43;60.57;99328.54;108884;1256;255174;-78
2023/02/19 08:02:58;;;;;;;6.70;2.50;;;;;;;5.45;60.49;99330.84;109138;1257;66173;-79
2023/02/19 08:04:12;;;;;;;7.50;2.80;;;;;;;5.53;60.43;99337.77;109273;1257;59294;-72
2023/02/19 08:06:41;;;;;;;20.90;11.00;;;;;;;5.60;59.34;99340.55;109126;1257;63700;-76
2023/02/19 08:09:09;;;;;;;22.60;13.20;;;;;;;5.63;58.40;99343.16;109106;1256;58248;-79
2023/02/19 08:14:28;;;;;;;26.90;16.70;;;;;;;5.63;57.28;99335.94;109212;1256;66123;-76
2023/02/19 08:16:55;;;;;;;19.90;11.60;;;;;;;5.66;57.04;99337.42;109237;1256;59713;-71
2023/02/19 08:19:24;;;;;;;12.40;5.10;;;;;;;5.73;56.70;99334.52;109113;1257;64003;-71
2023/02/19 08:21:52;;;;;;;15.30;8.30;;;;;;;5.79;56.55;99339.30;109235;1256;58191;-73
2023/02/19 08:24:21;;;;;;;9.70;4.50;;;;;;;5.84;56.39;99331.39;109294;1256;61799;-72
2023/02/19 08:26:47;;;;;;;6.90;3.30;;;;;;;5.92;56.42;99324.68;109047;1256;66178;-73
2023/02/19 08:29:15;;;;;;;4.90;2.40;;;;;;;6.02;56.17;99319.17;109357;1257;59452;-71
2023/02/19 08:31:42;;;;;;;7.60;3.10;;;;;;;6.09;55.32;99316.37;109090;1257;64054;-73
2023/02/19 08:34:09;;;;;;;10.30;4.90;;;;;;;6.10;54.46;99315.42;109218;1256;58236;-73
2023/02/19 08:36:38;;;;;;;9.20;4.20;;;;;;;6.09;54.38;99317.42;109302;1256;58137;-73
2023/02/19 08:39:05;;;;;;;10.10;4.00;;;;;;;6.14;54.30;99316.31;109067;1264;65123;-71
2023/02/19 08:41:33;;;;;;;6.70;2.60;;;;;;;6.22;54.19;99318.64;109137;1257;59202;-72
2023/02/19 08:44:00;;;;;;;8.40;2.60;;;;;;;6.32;53.58;99321.77;109266;1257;65161;-72
2023/02/19 08:46:30;;;;;;;5.30;2.30;;;;;;;6.38;53.55;99327.89;109110;1256;58149;-73
2023/02/19 08:49:03;;;;;;;5.50;2.10;;;;;;;6.46;52.97;99334.83;109113;1256;58288;-73
2023/02/19 08:51:33;;;;;;;7.60;3.10;;;;;;;6.47;52.27;99328.78;109110;1257;65404;-71
2023/02/19 08:54:04;;;;;;;6.90;2.70;;;;;;;6.46;52.33;99331.29;109154;1256;59512;-71
2023/02/19 08:56:36;;;;;;;4.70;2.00;;;;;;;6.47;52.13;99330.04;109009;1256;64146;-73
2023/02/19 08:59:05;;;;;;;7.70;2.90;;;;;;;6.45;51.84;99338.73;109072;1256;58142;-74
2023/02/19 09:01:35;;;;;;;7.10;2.80;;;;;;;6.40;51.72;99342.96;109171;1256;58233;-73
2023/02/19 09:04:05;;;;;;;10.30;4.90;;;;;;;6.36;51.79;99333.30;109250;1256;65153;-72
2023/02/19 09:06:35;;;;;;;8.40;3.80;;;;;;;6.37;52.02;99334.14;109178;1257;59269;-73
2023/02/19 09:09:13;;;;;;;6.20;3.60;;;;;;;6.34;52.17;99330.33;109152;1257;63809;-72
2023/02/19 09:11:44;;;;;;;7.00;3.20;;;;;;;6.35;52.75;99329.39;109059;1257;58162;-72
2023/02/19 09:14:18;;;;;;;7.00;2.80;;;;;;;6.45;53.15;99330.48;109127;1256;58119;-73
2023/02/19 09:16:49;;;;;;;6.20;2.40;;;;;;;6.56;53.36;99325.98;109119;1256;65171;-71
2023/02/19 09:19:18;;;;;;;6.80;2.90;;;;;;;6.66;53.38;99329.35;109189;1257;58268;-70
2023/02/19 09:21:48;;;;;;;7.60;2.50;;;;;;;6.74;53.35;99332.75;109270;1257;64940;-76
2023/02/19 09:24:18;;;;;;;6.10;2.30;;;;;;;6.82;53.02;99336.64;109194;1257;58147;-74
2023/02/19 09:26:50;;;;;;;6.10;2.60;;;;;;;6.89;52.53;99337.81;109154;1256;58240;-73
2023/02/19 09:29:21;;;;;;;6.30;2.50;;;;;;;6.91;51.59;99336.09;109049;1257;66008;-72
2023/02/19 09:32:00;;;;;;;6.90;2.90;;;;;;;6.93;51.70;99326.48;109134;1256;58590;-70
2023/02/19 09:34:30;;;;;;;9.20;3.50;;;;;;;6.99;51.83;99317.13;109170;1256;62650;-71
2023/02/19 09:37:00;;;;;;;8.50;3.50;;;;;;;7.02;51.99;99313.81;109113;1256;58119;-72
2023/02/19 09:39:30;;;;;;;6.70;2.70;;;;;;;7.10;52.14;99309.29;109095;1256;58200;-68
2023/02/19 09:42:28;;;;;;;9.20;3.00;;;;;;;7.18;52.11;99303.98;109164;1257;66206;-70
2023/02/19 09:51:21;;;;;;;6.50;2.60;;;;;;;7.62;51.19;99294.66;102656;1292;607507;-72
2023/02/19 09:53:51;;;;;;;6.80;2.60;;;;;;;7.57;50.90;99295.58;105559;1266;59263;-71
2023/02/19 09:56:19;;;;;;;5.40;2.60;;;;;;;7.55;49.90;99303.84;105080;1267;59376;-70
2023/02/19 09:58:48;;;;;;;9.30;2.30;;;;;;;7.49;49.61;99293.48;105105;1270;65643;-70
2023/02/19 10:01:15;;;;;;;8.20;2.70;;;;;;;7.46;49.97;99299.00;105737;1254;60002;-69
2023/02/19 10:03:45;;;;;;;7.60;3.00;;;;;;;7.48;50.19;99300.77;105628;1257;157197;-71
2023/02/19 10:06:19;;;;;;;8.20;2.70;;;;;;;7.54;50.67;99298.46;106051;1253;59346;-70
2023/02/19 10:08:47;;;;;;;6.60;2.30;;;;;;;7.63;49.96;99299.80;106032;1256;59477;-73
2023/02/19 10:11:14;;;;;;;6.50;2.80;;;;;;;7.63;49.65;99293.20;106145;1254;65293;-70
2023/02/19 10:13:48;;;;;;;8.90;2.80;;;;;;;7.55;49.48;99292.98;105850;1253;59760;-78
2023/02/19 10:16:20;;;;;;;8.80;3.00;;;;;;;7.41;49.46;99301.52;105953;1253;65211;-71
2023/02/19 10:18:48;;;;;;;6.90;2.80;;;;;;;7.27;49.78;99303.76;105909;1254;59628;-73
2023/02/19 10:21:20;;;;;;;6.60;2.40;;;;;;;7.15;49.91;99300.15;106055;1256;59624;-73
2023/02/19 10:23:49;;;;;;;10.40;2.60;;;;;;;7.10;50.27;99298.14;105777;1254;65874;-73
2023/02/19 10:26:17;;;;;;;4.90;2.20;;;;;;;7.10;50.36;99283.97;106088;1256;59845;-74
2023/02/19 10:28:44;;;;;;;7.30;2.40;;;;;;;7.15;49.87;99274.23;106122;1256;64412;-75
2023/02/19 10:31:22;;;;;;;4.90;2.00;;;;;;;7.23;50.08;99268.67;106005;1253;59624;-73
2023/02/19 10:33:56;;;;;;;7.50;2.70;;;;;;;7.32;49.63;99256.75;105988;1258;59504;-80
2023/02/19 10:36:39;;;;;;;6.80;2.50;;;;;;;7.32;48.64;99250.23;105820;1252;65949;-76
2023/02/19 10:39:21;;;;;;;6.40;2.40;;;;;;;7.25;48.02;99242.83;105761;1259;60280;-79
2023/02/19 10:41:49;;;;;;;10.50;3.60;;;;;;;7.11;47.60;99245.89;105842;1254;65451;-79
2023/02/19 10:44:34;;;;;;;8.60;3.00;;;;;;;7.08;47.74;99252.09;106514;1256;59591;-80
2023/02/19 10:47:01;;;;;;;8.50;2.60;;;;;;;7.15;47.37;99246.61;105882;1251;59692;-79
2023/02/19 10:49:38;;;;;;;7.70;2.50;;;;;;;7.27;47.48;99246.48;105991;1253;65877;-79
2023/02/19 10:52:27;;;;;;;5.40;2.30;;;;;;;7.40;46.67;99243.61;105724;1257;59751;-79
2023/02/19 10:54:56;;;;;;;7.20;2.70;;;;;;;7.51;46.51;99236.73;105955;1251;65868;-79
2023/02/19 10:57:36;;;;;;;7.20;2.70;;;;;;;7.57;46.40;99223.25;106029;1256;59528;-79
2023/02/19 11:00:28;;;;;;;8.80;4.30;;;;;;;7.56;46.26;99220.04;105846;1254;59727;-80
2023/02/19 11:03:18;;;;;;;4.40;1.60;;;;;;;7.48;45.73;99226.52;106007;1256;65890;-79
2023/02/19 11:06:01;;;;;;;7.00;2.10;;;;;;;7.33;45.05;99227.20;105794;1258;59962;-80
2023/02/19 11:08:29;;;;;;;12.80;4.90;;;;;;;7.21;45.53;99226.52;106030;1254;65636;-79
2023/02/19 11:10:56;;;;;;;4.80;2.00;;;;;;;7.19;45.74;99233.29;105737;1252;59765;-78
2023/02/19 11:13:32;;;;;;;6.00;2.10;;;;;;;7.22;45.91;99239.52;105706;1256;59708;-79
2023/02/19 11:15:59;;;;;;;5.10;1.90;;;;;;;7.24;45.76;99247.05;105555;1254;64968;-78
2023/02/19 11:18:34;;;;;;;5.50;2.40;;;;;;;7.17;45.59;99249.05;105781;1254;59731;-79
2023/02/19 11:21:03;;;;;;;6.10;2.30;;;;;;;7.02;46.02;99251.92;105704;1261;65588;-77
2023/02/19 11:23:33;;;;;;;3.40;1.60;;;;;;;6.93;46.61;99250.06;105661;1260;59692;-79
2023/02/19 11:26:03;;;;;;;5.70;2.10;;;;;;;6.87;46.90;99251.90;105589;1254;59531;-77
2023/02/19 11:28:40;;;;;;;5.90;2.40;;;;;;;6.83;47.34;99255.20;105639;1252;65037;-78
2023/02/19 11:31:27;;;;;;;8.50;2.60;;;;;;;6.85;47.92;99247.81;105759;1253;59786;-78
2023/02/19 11:34:19;;;;;;;7.10;3.80;;;;;;;6.93;48.23;99240.04;105801;1254;65255;-79
2023/02/19 11:36:52;;;;;;;12.70;5.60;;;;;;;7.01;48.20;99226.77;105954;1254;59734;-80
2023/02/19 11:39:23;;;;;;;7.30;3.20;;;;;;;7.02;48.36;99224.42;105751;1254;59624;-80
2023/02/19 11:41:53;;;;;;;8.80;3.60;;;;;;;6.97;48.54;99216.64;105595;1257;66157;-79
2023/02/19 11:44:35;;;;;;;9.00;3.30;;;;;;;6.90;48.46;99213.48;105818;1257;60073;-79
2023/02/19 11:47:20;;;;;;;11.20;6.20;;;;;;;6.81;48.34;99215.98;105846;1256;65640;-78
2023/02/19 11:50:22;;;;;;;7.80;2.80;;;;;;;6.69;48.77;99212.77;105832;1254;59752;-79
2023/02/19 11:52:56;;;;;;;6.20;2.10;;;;;;;6.61;48.91;99214.10;105508;1251;59693;-79
2023/02/19 11:55:49;;;;;;;9.00;4.10;;;;;;;6.55;48.90;99216.73;105752;1254;66202;-79
2023/02/19 11:58:57;;;;;;;9.40;4.50;;;;;;;6.49;49.22;99221.77;105682;1253;59624;-78
2023/02/19 12:01:38;;;;;;;4.90;2.30;;;;;;;6.42;49.32;99220.45;105303;1261;64577;-78
2023/02/19 12:04:11;;;;;;;5.80;2.10;;;;;;;6.34;49.51;99220.02;105318;1262;60009;-78
2023/02/19 12:06:57;;;;;;;5.40;2.00;;;;;;;6.29;49.68;99227.73;105746;1254;59739;-78
2023/02/19 12:09:32;;;;;;;5.20;2.20;;;;;;;6.22;50.00;99234.04;105853;1254;65973;-77
2023/02/19 12:12:08;;;;;;;6.30;2.10;;;;;;;6.19;49.90;99241.65;105805;1257;59528;-79
2023/02/19 12:14:54;;;;;;;6.50;2.30;;;;;;;6.15;49.76;99247.53;105696;1254;65307;-80
2023/02/19 12:17:45;;;;;;;8.80;5.00;;;;;;;6.12;49.59;99251.49;105726;1260;59668;-79
2023/02/19 12:20:50;;;;;;;7.70;4.00;;;;;;;6.13;49.95;99260.86;106527;1254;60041;-77
2023/02/19 12:23:33;;;;;;;7.50;2.70;;;;;;;6.16;50.00;99268.50;106085;1254;65739;-83